createdAt,value
2022-10-23T05:08:00.665Z,0.1
2022-10-23T05:10:00.681Z,0.2
2022-10-23T05:11:00.382Z,0.3
2022-10-23T05:13:00.901Z,0.4
2022-10-23T05:14:00.652Z,0.5
2022-10-23T05:15:01.255Z,0.5
2022-10-23T05:16:00.365Z,0.6
2022-10-23T05:17:00.371Z,0.7
2022-10-23T05:18:00.861Z,0.8
2022-10-23T05:19:00.390Z,0.9
2022-10-23T05:20:00.377Z,1.1
2022-10-23T05:21:00.363Z,1.3
2022-10-23T05:22:01.458Z,1.5
2022-10-23T05:23:00.575Z,1.8
2022-10-23T05:25:00.385Z,2.5
2022-10-23T05:26:00.373Z,2.9
2022-10-23T05:27:00.408Z,3.3
2022-10-23T05:28:00.980Z,3.9
2022-10-23T05:29:05.382Z,4.5
2022-10-23T05:31:00.372Z,6.2
2022-10-23T05:32:00.380Z,7.1
2022-10-23T05:33:01.852Z,8.3
2022-10-23T05:34:00.399Z,9.6
2022-10-23T05:35:00.384Z,11.6
2022-10-23T05:36:00.380Z,13.6
2022-10-23T05:37:00.371Z,15.6
2022-10-23T05:38:00.841Z,18.7
2022-10-23T05:39:00.407Z,21.7
2022-10-23T05:40:00.419Z,26.4
2022-10-23T05:41:00.376Z,31.1
2022-10-23T05:42:00.477Z,35.7
2022-10-23T05:43:00.581Z,42.7
2022-10-23T05:44:00.400Z,49.6
2022-10-23T05:45:03.432Z,60.3
2022-10-23T05:46:00.381Z,70.9
2022-10-23T05:47:00.375Z,81.6
2022-10-23T05:48:05.739Z,97.3
2022-10-23T05:49:00.452Z,113.1
2022-10-23T05:50:00.446Z,134.3
2022-10-23T05:51:00.376Z,155.6
2022-10-23T05:52:00.377Z,176.9
2022-10-23T05:53:00.860Z,206.5
2022-10-23T05:54:00.410Z,236.2
2022-10-23T05:55:00.487Z,281.7
2022-10-23T05:56:00.677Z,327.3
2022-10-23T05:57:00.387Z,372.8
2022-10-23T05:58:00.586Z,438.9
2022-10-23T05:59:00.409Z,504.9
2022-10-23T06:00:00.935Z,586.8
2022-10-23T06:01:00.731Z,668.7
2022-10-23T06:02:00.675Z,750.5
2022-10-23T06:03:00.586Z,842.0
2022-10-23T06:04:00.409Z,933.5
2022-10-23T06:05:00.453Z,1041.3
2022-10-23T06:06:00.384Z,1149.1
2022-10-23T06:07:00.380Z,1256.9
2022-10-23T06:08:00.859Z,1379.5
2022-10-23T06:09:00.496Z,1502.2
2022-10-23T06:10:06.427Z,1642.9
2022-10-23T06:11:00.512Z,1783.5
2022-10-23T06:12:00.477Z,1924.2
2022-10-23T06:13:00.728Z,2081.8
2022-10-23T06:14:00.419Z,2239.4
2022-10-23T06:15:01.056Z,2407.6
2022-10-23T06:16:00.382Z,2575.8
2022-10-23T06:17:00.380Z,2744.0
2022-10-23T06:18:00.696Z,2938.3
2022-10-23T06:19:00.425Z,3132.5
2022-10-23T06:21:00.471Z,3585.9
2022-10-23T06:22:00.393Z,3812.5
2022-10-23T06:23:00.592Z,4070.2
2022-10-23T06:24:00.529Z,4327.9
2022-10-23T06:25:00.670Z,4609.3
2022-10-23T06:26:00.419Z,4890.7
2022-10-23T06:27:00.383Z,5172.1
2022-10-23T06:28:00.643Z,5533.5
2022-10-23T06:29:00.406Z,5894.9
2022-10-23T06:30:01.131Z,6288.2
2022-10-23T06:31:00.389Z,6681.5
2022-10-23T06:32:00.382Z,7074.9
2022-10-23T06:33:02.105Z,7469.3
2022-10-23T06:34:00.702Z,7863.8
2022-10-23T06:35:00.691Z,8224.9
2022-10-23T06:36:00.395Z,8586.1
2022-10-23T06:37:00.452Z,8947.2
2022-10-23T06:38:00.590Z,9316.1
2022-10-23T06:40:00.400Z,10058.7
2022-10-23T06:41:00.480Z,10432.4
2022-10-23T06:42:00.393Z,10806.1
2022-10-23T06:43:00.854Z,11153.9
2022-10-23T06:44:00.453Z,11501.7
2022-10-23T06:46:00.395Z,12356.1
2022-10-23T06:47:00.398Z,12783.3
2022-10-23T06:48:00.840Z,13318.4
2022-10-23T06:49:00.422Z,13853.5
2022-10-23T06:50:00.829Z,14459.0
2022-10-23T06:51:00.396Z,15064.5
2022-10-23T06:52:00.399Z,15670.1
2022-10-23T06:53:00.596Z,16198.3
2022-10-23T06:54:00.428Z,16726.5
2022-10-23T06:55:00.402Z,17261.3
2022-10-23T06:56:00.394Z,17796.2
2022-10-23T06:57:00.478Z,18331.1
2022-10-23T06:58:00.593Z,18890.0
2022-10-23T06:59:00.455Z,19448.9
2022-10-23T07:00:01.160Z,19961.3
2022-10-23T07:01:00.523Z,20473.7
2022-10-23T07:02:00.398Z,20986.1
2022-10-23T07:03:00.603Z,21478.1
2022-10-23T07:04:00.430Z,21970.1
2022-10-23T07:05:00.409Z,22355.4
2022-10-23T07:06:00.394Z,22740.7
2022-10-23T07:07:00.407Z,23125.9
2022-10-23T07:08:00.601Z,23538.9
2022-10-23T07:09:00.445Z,23951.8
2022-10-23T07:10:00.753Z,24288.5
2022-10-23T07:11:00.393Z,24625.3
2022-10-23T07:12:00.409Z,24962.0
2022-10-23T07:13:01.043Z,25261.7
2022-10-23T07:14:00.444Z,25561.3
2022-10-23T07:15:01.037Z,25961.7
2022-10-23T07:16:00.714Z,26362.1
2022-10-23T07:17:00.406Z,26762.5
2022-10-23T07:18:00.686Z,27337.7
2022-10-23T07:19:00.444Z,27912.8
2022-10-23T07:20:00.421Z,28701.5
2022-10-23T07:21:00.416Z,29490.3
2022-10-23T07:22:00.721Z,30279.0
2022-10-23T07:23:00.887Z,30871.4
2022-10-23T07:24:00.445Z,31463.8
2022-10-23T07:25:00.412Z,32549.7
2022-10-23T07:26:00.405Z,33635.5
2022-10-23T07:27:00.413Z,34721.4
2022-10-23T07:28:00.867Z,35797.8
2022-10-23T07:29:00.551Z,36874.2
2022-10-23T07:30:00.857Z,37374.9
2022-10-23T07:31:00.402Z,37875.5
2022-10-23T07:32:00.436Z,38376.2
2022-10-23T07:33:00.616Z,38323.4
2022-10-23T07:34:00.449Z,38270.6
2022-10-23T07:35:01.560Z,38464.7
2022-10-23T07:36:00.420Z,38658.7
2022-10-23T07:37:00.491Z,38852.8
2022-10-23T07:38:00.879Z,39493.7
2022-10-23T07:39:00.445Z,40134.5
2022-10-23T07:40:06.728Z,40202.7
2022-10-23T07:41:00.413Z,40270.8
2022-10-23T07:42:01.458Z,40338.9
2022-10-23T07:43:00.884Z,40580.3
2022-10-23T07:44:00.454Z,40821.6
2022-10-23T07:45:01.180Z,41974.2
2022-10-23T07:46:00.710Z,43126.8
2022-10-23T07:47:00.418Z,44279.4
2022-10-23T07:48:00.641Z,45892.4
2022-10-23T07:49:00.448Z,47505.4
2022-10-23T07:50:00.424Z,48603.5
2022-10-23T07:51:00.410Z,49701.7
2022-10-23T07:52:00.490Z,50799.8
2022-10-23T07:53:05.634Z,51466.5
2022-10-23T07:54:00.568Z,52133.3
2022-10-23T07:55:02.133Z,53472.9
2022-10-23T07:56:00.417Z,54812.6
2022-10-23T07:57:00.501Z,56152.3
2022-10-23T07:58:15.433Z,57044.7
2022-10-23T07:59:00.581Z,57937.2
2022-10-23T08:00:01.973Z,58034.0
2022-10-23T08:01:00.436Z,58130.8
2022-10-23T08:02:00.487Z,58227.6
2022-10-23T08:03:00.427Z,58703.4
2022-10-23T08:04:00.820Z,59179.2
2022-10-23T08:05:01.232Z,59757.4
2022-10-23T08:06:00.421Z,60335.6
2022-10-23T08:07:00.485Z,60913.8
2022-10-23T08:08:00.682Z,61659.4
2022-10-23T08:09:02.379Z,62405.0
2022-10-23T08:11:00.423Z,62719.5
2022-10-23T08:12:00.420Z,62876.8
2022-10-23T08:13:00.428Z,63236.5
2022-10-23T08:14:00.932Z,63596.3
2022-10-23T08:15:01.048Z,64220.2
2022-10-23T08:16:00.418Z,64844.1
2022-10-23T08:18:00.426Z,65501.5
2022-10-23T08:19:01.960Z,65535.0
2022-10-23T08:30:01.341Z,65535.0
2022-10-23T08:33:00.497Z,64745.1
2022-10-23T08:34:00.440Z,63955.1
2022-10-23T08:45:02.052Z,63955.1
2022-10-23T08:48:00.746Z,64745.1
2022-10-23T08:49:00.446Z,65535.0
2022-10-23T08:53:01.054Z,65430.9
2022-10-23T08:54:01.493Z,65326.9
2022-10-23T09:00:03.786Z,65326.9
2022-10-23T09:08:00.798Z,65430.9
2022-10-23T09:09:00.428Z,65535.0
2022-10-23T09:15:02.172Z,65535.0
2022-10-23T10:00:01.612Z,65535.0
2022-10-23T10:15:01.213Z,65535.0
2022-10-23T10:45:02.325Z,65535.0
2022-10-23T11:15:01.204Z,65535.0
2022-10-23T11:30:06.675Z,65535.0
2022-10-23T11:45:01.277Z,65535.0
2022-10-23T12:30:01.612Z,65535.0
2022-10-23T12:45:01.303Z,65535.0
2022-10-23T13:30:10.809Z,65535.0
2022-10-23T14:01:00.583Z,65182.2
2022-10-23T14:02:00.669Z,65005.8
2022-10-23T14:03:00.558Z,64611.4
2022-10-23T14:04:00.526Z,64217.0
2022-10-23T14:05:01.612Z,63510.1
2022-10-23T14:06:00.523Z,62803.3
2022-10-23T14:07:00.819Z,62096.4
2022-10-23T14:08:00.755Z,61100.1
2022-10-23T14:09:00.799Z,60103.7
2022-10-23T14:11:00.635Z,57793.7
2022-10-23T14:12:00.564Z,56638.7
2022-10-23T14:13:00.525Z,55455.3
2022-10-23T14:14:00.524Z,54271.9
2022-10-23T14:16:00.667Z,52106.2
2022-10-23T14:17:00.573Z,51023.3
2022-10-23T14:18:03.470Z,49957.5
2022-10-23T14:19:00.686Z,48891.7
2022-10-23T14:21:00.532Z,46949.1
2022-10-23T14:22:00.569Z,45977.7
2022-10-23T14:23:00.529Z,45195.4
2022-10-23T14:24:00.534Z,44413.1
2022-10-23T14:25:00.813Z,43789.4
2022-10-23T14:26:00.530Z,43118.3
2022-10-23T14:27:00.577Z,42447.3
2022-10-23T14:28:00.532Z,41712.5
2022-10-23T14:29:02.265Z,40977.7
2022-10-23T14:31:00.534Z,39545.3
2022-10-23T14:32:00.582Z,38771.8
2022-10-23T14:33:00.799Z,38109.1
2022-10-23T14:34:00.541Z,37446.5
2022-10-23T14:35:01.458Z,37001.8
2022-10-23T14:36:00.533Z,36478.7
2022-10-23T14:37:08.710Z,35955.5
2022-10-23T14:38:00.532Z,35440.6
2022-10-23T14:39:00.532Z,34925.7
2022-10-23T14:40:02.317Z,34410.7
2022-10-23T14:41:00.539Z,33841.4
2022-10-23T14:42:00.603Z,33272.1
2022-10-23T14:43:00.791Z,32718.2
2022-10-23T14:44:00.541Z,32164.3
2022-10-23T14:46:00.532Z,31094.9
2022-10-23T14:47:00.560Z,30579.4
2022-10-23T14:48:00.561Z,30084.1
2022-10-23T14:49:02.564Z,29588.9
2022-10-23T14:50:02.014Z,29093.6
2022-10-23T14:51:00.531Z,28612.9
2022-10-23T14:52:00.558Z,28132.1
2022-10-23T14:54:00.545Z,27258.8
2022-10-23T14:55:00.757Z,26822.1
2022-10-23T14:56:01.573Z,26431.1
2022-10-23T14:57:00.581Z,26040.0
2022-10-23T14:58:00.539Z,25664.1
2022-10-23T14:59:00.540Z,25288.3
2022-10-23T15:01:00.713Z,24543.2
2022-10-23T15:02:00.577Z,24174.0
2022-10-23T15:03:00.539Z,23807.1
2022-10-23T15:04:00.571Z,23440.1
2022-10-23T15:06:00.542Z,22616.2
2022-10-23T15:07:00.585Z,22236.2
2022-10-23T15:08:00.560Z,21815.9
2022-10-23T15:09:00.574Z,21395.7
2022-10-23T15:10:00.754Z,20975.4
2022-10-23T15:11:00.550Z,20509.4
2022-10-23T15:12:00.575Z,20043.4
2022-10-23T15:13:00.548Z,19514.5
2022-10-23T15:14:01.592Z,18985.5
2022-10-23T15:15:01.643Z,18456.6
2022-10-23T15:16:00.542Z,17887.4
2022-10-23T15:17:00.589Z,17318.2
2022-10-23T15:18:00.550Z,16750.6
2022-10-23T15:19:00.536Z,16183.0
2022-10-23T15:20:01.232Z,15692.4
2022-10-23T15:21:00.541Z,15158.5
2022-10-23T15:22:00.571Z,14624.5
2022-10-23T15:23:00.537Z,14149.5
2022-10-23T15:24:00.542Z,13674.4
2022-10-23T15:25:00.769Z,13199.3
2022-10-23T15:26:00.551Z,12802.6
2022-10-23T15:27:00.618Z,12405.9
2022-10-23T15:28:00.544Z,12092.9
2022-10-23T15:29:00.540Z,11780.0
2022-10-23T15:30:01.780Z,11467.1
2022-10-23T15:31:00.545Z,11201.7
2022-10-23T15:32:00.846Z,10936.3
2022-10-23T15:33:00.550Z,10677.7
2022-10-23T15:34:00.553Z,10419.2
2022-10-23T15:35:00.964Z,10160.7
2022-10-23T15:36:00.575Z,9899.6
2022-10-23T15:37:01.617Z,9638.5
2022-10-23T15:38:00.552Z,9367.4
2022-10-23T15:39:00.547Z,9096.3
2022-10-23T15:40:03.412Z,8825.1
2022-10-23T15:41:00.548Z,8535.3
2022-10-23T15:42:00.771Z,8245.4
2022-10-23T15:43:00.574Z,7947.7
2022-10-23T15:44:01.576Z,7650.1
2022-10-23T15:45:01.188Z,7352.4
2022-10-23T15:46:00.557Z,7066.7
2022-10-23T15:47:00.616Z,6780.9
2022-10-23T15:48:00.556Z,6503.4
2022-10-23T15:49:00.551Z,6225.9
2022-10-23T15:51:00.620Z,5668.9
2022-10-23T15:52:00.728Z,5389.5
2022-10-23T15:53:00.549Z,5108.9
2022-10-23T15:54:01.644Z,4828.2
2022-10-23T15:55:00.901Z,4547.5
2022-10-23T15:56:01.687Z,4274.1
2022-10-23T15:57:00.586Z,4000.7
2022-10-23T15:58:00.947Z,3744.5
2022-10-23T15:59:00.671Z,3488.3
2022-10-23T16:01:00.934Z,2980.8
2022-10-23T16:02:00.728Z,2752.2
2022-10-23T16:03:05.566Z,2558.7
2022-10-23T16:04:00.557Z,2365.3
2022-10-23T16:05:00.789Z,2171.8
2022-10-23T16:06:00.554Z,2011.5
2022-10-23T16:07:05.882Z,1851.1
2022-10-23T16:08:00.559Z,1718.5
2022-10-23T16:09:01.655Z,1585.9
2022-10-23T16:10:00.830Z,1453.3
2022-10-23T16:11:01.655Z,1343.7
2022-10-23T16:12:00.592Z,1234.1
2022-10-23T16:13:00.555Z,1145.4
2022-10-23T16:14:00.557Z,1056.7
2022-10-23T16:16:00.565Z,916.0
2022-10-23T16:17:01.681Z,841.3
2022-10-23T16:18:00.574Z,775.5
2022-10-23T16:19:00.560Z,709.7
2022-10-23T16:20:00.794Z,643.9
2022-10-23T16:21:00.560Z,586.6
2022-10-23T16:22:00.602Z,529.3
2022-10-23T16:23:00.597Z,480.7
2022-10-23T16:24:00.571Z,432.1
2022-10-23T16:25:00.779Z,383.5
2022-10-23T16:26:00.567Z,343.1
2022-10-23T16:27:00.604Z,302.7
2022-10-23T16:28:00.751Z,270.3
2022-10-23T16:29:00.573Z,237.9
2022-10-23T16:31:00.759Z,180.2
2022-10-23T16:32:00.595Z,154.9
2022-10-23T16:33:00.570Z,135.7
2022-10-23T16:34:00.613Z,116.5
2022-10-23T16:35:00.789Z,97.3
2022-10-23T16:36:00.674Z,83.7
2022-10-23T16:37:00.604Z,70.0
2022-10-23T16:38:00.575Z,60.4
2022-10-23T16:39:01.687Z,50.8
2022-10-23T16:40:00.920Z,41.2
2022-10-23T16:41:07.884Z,35.2
2022-10-23T16:42:00.965Z,29.2
2022-10-23T16:43:00.635Z,25.3
2022-10-23T16:44:00.848Z,21.5
2022-10-23T16:46:00.645Z,15.1
2022-10-23T16:47:00.773Z,12.7
2022-10-23T16:48:00.571Z,11.0
2022-10-23T16:49:00.573Z,9.3
2022-10-23T16:50:07.024Z,7.7
2022-10-23T16:51:00.635Z,6.5
2022-10-23T16:52:00.618Z,5.4
2022-10-23T16:53:00.577Z,4.7
2022-10-23T16:54:01.606Z,3.9
2022-10-23T16:55:01.402Z,3.2
2022-10-23T16:56:00.584Z,2.7
2022-10-23T16:57:00.614Z,2.3
2022-10-23T16:58:00.645Z,1.9
2022-10-23T16:59:00.671Z,1.6
2022-10-23T17:01:05.688Z,1.1
2022-10-23T17:02:00.704Z,0.9
2022-10-23T17:03:00.795Z,0.7
2022-10-23T17:04:00.582Z,0.6
2022-10-23T17:06:01.392Z,0.4
2022-10-23T17:07:00.616Z,0.3
2022-10-23T17:09:00.591Z,0.2
2022-10-23T17:10:01.825Z,0.1
